Maricao, Puerto Rico
Current Conditions -  °F | °C
As of 4:50 PM on Saturday 20 Dec 2014 (Local Time) from TJBQ Reporting Station
Scattered Clouds Scattered Clouds  
Wind Chill: 81°   Ceiling: Unl
Heat Index: 84°   Visibility: 10mi
Dew Point: 70°   Wind: 15mph
Humidity: 70%   Direction: 90°E
Pressure: 29.99"   Gusts: 21mph
Location:  18.18°N, 66.98°W
Report Text: TJBQ 202050Z 09013G18KT 10SM SCT080 27/21 A2999 RMK RWY08 ATIS Q
Loading
Personal Weather Stations






























Interactive Weather Map New forecast layout! Learn more

10-Day Weather Forecast

Advertisements
Track Severe Weather on mobile